Kos, Greece
Current Conditions -  °F | °C
As of 9:50 AM on Saturday 25 Oct 2014 (Local Time) from LGKO Reporting Station
Few Clouds Few Clouds  
Wind Chill: 70°   Ceiling: Unl
Heat Index: 70°   Visibility: 6mi
Dew Point: 52°   Wind: 8mph
Humidity: 53%   Direction: 230°SW
Pressure: 29.85"   Gusts: NA
Location:  36.8°N, 27.14°E
Report Text: LGKO 250650Z 23007KT 9999 FEW020 21/11 Q1011
Loading
Personal Weather Stations






























Interactive Weather Map
Tropical Storm Tracking
New forecast layout! Learn more

10-Day Weather Forecast

Advertisements
Track Severe Weather on mobile